createdAt,value
2023-11-25T00:00:14.565Z,23.00
2023-11-25T00:03:02.892Z,22.90
2023-11-25T00:05:31.297Z,21.40
2023-11-25T00:07:59.560Z,17.20
2023-11-25T00:10:28.063Z,20.20
2023-11-25T00:12:56.337Z,19.60
2023-11-25T00:15:25.190Z,18.90
2023-11-25T00:17:54.020Z,19.50
2023-11-25T00:20:23.760Z,21.30
2023-11-25T00:22:53.734Z,19.60
2023-11-25T00:25:25.464Z,19.90
2023-11-25T00:27:54.103Z,17.10
2023-11-25T00:30:22.724Z,17.60
2023-11-25T00:32:56.097Z,16.90
2023-11-25T00:35:24.864Z,18.50
2023-11-25T00:37:53.281Z,17.50
2023-11-25T00:40:21.961Z,18.10
2023-11-25T00:42:50.290Z,17.20
2023-11-25T00:45:19.470Z,18.50
2023-11-25T00:47:49.061Z,19.10
2023-11-25T00:50:18.054Z,17.70
2023-11-25T00:52:47.058Z,16.20
2023-11-25T00:55:15.694Z,15.50
2023-11-25T00:57:45.328Z,17.50
2023-11-25T01:00:17.837Z,17.60
2023-11-25T01:02:46.756Z,18.50
2023-11-25T01:05:15.592Z,17.80
2023-11-25T01:07:46.179Z,17.60
2023-11-25T01:10:14.815Z,15.60
2023-11-25T01:12:43.122Z,17.90
2023-11-25T01:15:16.525Z,15.60
2023-11-25T01:17:44.956Z,17.30
2023-11-25T01:20:15.104Z,16.70
2023-11-25T01:22:43.693Z,19.00
2023-11-25T01:25:12.856Z,17.20
2023-11-25T01:27:41.523Z,17.90
2023-11-25T01:30:10.323Z,18.30
2023-11-25T01:32:38.871Z,17.60
2023-11-25T01:35:07.633Z,16.80
2023-11-25T01:37:36.160Z,16.70
2023-11-25T01:40:07.281Z,19.50
2023-11-25T01:42:35.904Z,19.30
2023-11-25T01:45:04.497Z,17.70
2023-11-25T01:47:32.917Z,20.30
2023-11-25T01:50:03.787Z,17.60
2023-11-25T01:52:33.316Z,15.90
2023-11-25T01:55:02.606Z,17.40
2023-11-25T01:57:34.896Z,17.10
2023-11-25T02:00:10.803Z,17.50
2023-11-25T02:02:44.293Z,18.30
2023-11-25T02:05:13.844Z,19.30
2023-11-25T02:07:42.901Z,16.20
2023-11-25T02:10:12.769Z,16.10
2023-11-25T02:12:41.456Z,15.30
2023-11-25T02:15:16.045Z,15.40
2023-11-25T02:17:46.039Z,18.60
2023-11-25T02:20:15.861Z,16.20
2023-11-25T02:23:01.063Z,16.90
2023-11-25T02:25:29.897Z,14.90
2023-11-25T02:27:58.230Z,15.60
2023-11-25T02:30:27.934Z,15.50
2023-11-25T02:32:56.573Z,14.70
2023-11-25T02:35:26.477Z,15.50
2023-11-25T02:37:55.026Z,15.00
2023-11-25T02:40:25.395Z,14.30
2023-11-25T02:42:54.090Z,14.70
2023-11-25T02:45:24.976Z,14.80
2023-11-25T02:47:54.236Z,16.10
2023-11-25T02:50:23.084Z,14.00
2023-11-25T02:52:51.941Z,16.10
2023-11-25T02:55:22.344Z,15.30
2023-11-25T02:57:53.390Z,14.30
2023-11-25T03:00:30.748Z,16.40
2023-11-25T03:03:10.864Z,16.20
2023-11-25T03:05:43.493Z,16.60
2023-11-25T03:08:13.860Z,17.20
2023-11-25T03:10:47.996Z,15.60
2023-11-25T03:13:18.061Z,12.00
2023-11-25T03:15:46.705Z,12.70
2023-11-25T03:18:15.423Z,12.90
2023-11-25T03:20:43.840Z,11.90
2023-11-25T03:23:12.214Z,12.40
2023-11-25T03:25:41.002Z,11.50
2023-11-25T03:28:12.275Z,11.40
2023-11-25T03:30:42.269Z,10.20
2023-11-25T03:33:11.402Z,9.70
2023-11-25T03:35:40.238Z,10.20
2023-11-25T03:38:10.042Z,9.20
2023-11-25T03:40:38.831Z,11.50
2023-11-25T03:43:08.047Z,12.20
2023-11-25T03:45:36.988Z,14.30
2023-11-25T03:48:07.001Z,12.10
2023-11-25T03:50:35.603Z,8.90
2023-11-25T03:53:04.066Z,9.50
2023-11-25T03:55:32.543Z,9.30
2023-11-25T03:58:02.566Z,9.20
2023-11-25T04:00:30.943Z,8.50
2023-11-25T04:02:59.673Z,9.60
2023-11-25T04:05:28.446Z,10.40
2023-11-25T04:07:56.838Z,10.10
2023-11-25T04:10:25.332Z,9.30
2023-11-25T04:12:54.495Z,10.60
2023-11-25T04:15:23.473Z,10.60
2023-11-25T04:17:52.791Z,11.50
2023-11-25T04:20:30.968Z,10.00
2023-11-25T04:23:07.964Z,10.70
2023-11-25T04:25:37.467Z,11.20
2023-11-25T04:28:08.464Z,10.20
2023-11-25T04:30:37.448Z,10.50
2023-11-25T04:33:08.518Z,10.20
2023-11-25T04:35:38.230Z,10.80
2023-11-25T04:38:06.735Z,12.20
2023-11-25T04:40:35.055Z,10.10
2023-11-25T04:43:03.475Z,10.80
2023-11-25T04:45:31.838Z,9.60
2023-11-25T04:48:00.277Z,8.70
2023-11-25T04:50:29.202Z,9.50
2023-11-25T04:52:58.235Z,10.20
2023-11-25T04:55:29.503Z,10.20
2023-11-25T04:57:58.552Z,10.00
2023-11-25T05:00:27.188Z,10.70
2023-11-25T05:02:56.246Z,9.10
2023-11-25T05:05:24.873Z,9.10
2023-11-25T05:07:53.429Z,11.40
2023-11-25T05:10:22.104Z,10.30
2023-11-25T05:12:52.171Z,9.40
2023-11-25T05:15:24.127Z,11.70
2023-11-25T05:17:55.968Z,8.40
2023-11-25T05:20:24.281Z,10.00
2023-11-25T05:22:52.753Z,9.00
2023-11-25T05:25:23.531Z,9.90
2023-11-25T05:27:52.231Z,9.60
2023-11-25T05:30:21.519Z,9.20
2023-11-25T05:32:50.109Z,9.80
2023-11-25T05:35:18.688Z,10.30
2023-11-25T05:37:47.140Z,9.50
2023-11-25T05:40:16.897Z,8.90
2023-11-25T05:42:54.999Z,9.60
2023-11-25T05:45:27.786Z,9.40
2023-11-25T05:47:56.482Z,9.10
2023-11-25T05:50:26.487Z,9.10
2023-11-25T05:52:55.135Z,10.40
2023-11-25T05:55:23.753Z,8.20
2023-11-25T05:57:52.959Z,10.20
2023-11-25T06:00:25.016Z,8.30
2023-11-25T06:02:54.321Z,9.20
2023-11-25T06:05:23.911Z,9.30
2023-11-25T06:07:52.625Z,8.10
2023-11-25T06:10:21.343Z,8.20
2023-11-25T06:12:50.009Z,9.40
2023-11-25T06:15:20.232Z,7.30
2023-11-25T06:17:49.240Z,8.40
2023-11-25T06:20:17.907Z,9.00
2023-11-25T06:22:46.349Z,9.40
2023-11-25T06:25:15.410Z,7.90
2023-11-25T06:27:46.699Z,8.70
2023-11-25T06:30:17.580Z,9.10
2023-11-25T06:32:47.418Z,8.20
2023-11-25T06:35:15.846Z,8.60
2023-11-25T06:37:44.434Z,9.20
2023-11-25T06:40:15.891Z,9.60
2023-11-25T06:42:44.355Z,9.50
2023-11-25T06:45:15.453Z,10.10
2023-11-25T06:47:45.164Z,10.50
2023-11-25T06:50:14.758Z,10.00
2023-11-25T06:52:43.105Z,8.60
2023-11-25T06:55:11.448Z,10.90
2023-11-25T06:57:42.583Z,9.20
2023-11-25T07:00:12.695Z,11.00
2023-11-25T07:02:42.406Z,10.30
2023-11-25T07:05:11.093Z,9.90
2023-11-25T07:07:39.521Z,10.40
2023-11-25T07:10:11.575Z,11.20
2023-11-25T07:12:40.200Z,9.70
2023-11-25T07:15:09.464Z,11.40
2023-11-25T07:17:38.152Z,10.00
2023-11-25T07:20:13.586Z,10.70
2023-11-25T07:22:43.134Z,10.40
2023-11-25T07:25:13.830Z,10.70
2023-11-25T07:27:46.677Z,10.20
2023-11-25T07:30:17.226Z,10.70
2023-11-25T07:32:46.192Z,13.20
2023-11-25T07:35:14.843Z,11.60
2023-11-25T07:37:43.208Z,11.80
2023-11-25T07:40:16.189Z,12.60
2023-11-25T07:42:50.106Z,12.70
2023-11-25T07:45:19.059Z,11.70
2023-11-25T07:47:47.726Z,11.70
2023-11-25T07:50:17.644Z,11.10
2023-11-25T07:52:47.251Z,11.30
2023-11-25T07:55:15.897Z,12.80
2023-11-25T07:57:44.583Z,12.90
2023-11-25T08:00:16.953Z,14.20
2023-11-25T08:02:48.683Z,15.60
2023-11-25T08:05:24.123Z,13.30
2023-11-25T08:07:54.609Z,12.60
2023-11-25T08:10:26.078Z,10.00
2023-11-25T08:12:55.140Z,10.40
2023-11-25T08:15:24.407Z,9.30
2023-11-25T08:17:53.543Z,9.40
2023-11-25T08:20:22.345Z,10.80
2023-11-25T08:22:50.631Z,9.00
2023-11-25T08:25:20.032Z,12.30
2023-11-25T08:27:51.615Z,10.30
2023-11-25T08:30:20.074Z,9.00
2023-11-25T08:32:49.070Z,9.70
2023-11-25T08:35:17.574Z,10.40
2023-11-25T08:37:46.903Z,10.50
2023-11-25T08:40:18.673Z,10.10
2023-11-25T08:42:47.478Z,8.50
2023-11-25T08:45:15.938Z,9.20
2023-11-25T08:47:44.424Z,11.40
2023-11-25T08:50:17.508Z,9.90
2023-11-25T08:52:49.899Z,9.20
2023-11-25T08:55:21.366Z,11.80
2023-11-25T08:57:52.605Z,10.60
2023-11-25T09:00:22.173Z,11.10
2023-11-25T09:02:53.335Z,12.00
2023-11-25T09:05:24.251Z,10.20
2023-11-25T09:26:31.218Z,10.90
2023-11-25T09:28:59.474Z,14.80
2023-11-25T09:31:28.299Z,14.10
2023-11-25T09:33:58.192Z,12.30
2023-11-25T09:36:26.582Z,13.20
2023-11-25T09:38:54.714Z,14.70
2023-11-25T09:41:24.045Z,13.80
2023-11-25T09:43:52.546Z,14.90
2023-11-25T09:46:21.490Z,12.80
2023-11-25T09:48:49.976Z,12.80
2023-11-25T09:51:25.446Z,14.40
2023-11-25T09:53:57.944Z,11.20
2023-11-25T09:56:26.594Z,11.20
2023-11-25T09:58:54.930Z,12.70
2023-11-25T10:01:27.307Z,14.30
2023-11-25T10:03:57.724Z,14.00
2023-11-25T10:06:26.912Z,14.30
2023-11-25T10:08:55.164Z,14.20
2023-11-25T10:11:24.344Z,11.70
2023-11-25T10:13:52.999Z,13.20
2023-11-25T10:16:30.651Z,12.20
2023-11-25T10:18:59.003Z,10.50
2023-11-25T10:21:27.228Z,14.30
2023-11-25T10:23:55.726Z,12.40
2023-11-25T10:26:24.959Z,11.60
2023-11-25T10:28:53.181Z,12.50
2023-11-25T10:31:21.453Z,12.90
2023-11-25T10:33:56.570Z,11.70
2023-11-25T10:36:24.733Z,12.70
2023-11-25T10:38:54.916Z,14.20
2023-11-25T10:41:24.191Z,11.90
2023-11-25T10:43:54.120Z,13.10
2023-11-25T10:46:38.798Z,12.10
2023-11-25T10:49:09.726Z,9.90
2023-11-25T10:51:41.408Z,12.20
2023-11-25T10:54:12.515Z,11.20
2023-11-25T10:56:42.127Z,10.80
2023-11-25T10:59:14.312Z,11.70
2023-11-25T11:01:45.704Z,10.80
2023-11-25T11:04:33.915Z,11.20
2023-11-25T11:07:08.002Z,11.50
2023-11-25T11:09:36.812Z,11.80
2023-11-25T11:12:17.829Z,12.90
2023-11-25T11:14:59.579Z,12.50
2023-11-25T11:17:47.682Z,12.10
2023-11-25T11:20:19.725Z,11.70
2023-11-25T11:22:48.258Z,12.50
2023-11-25T11:25:45.766Z,14.30
2023-11-25T11:28:26.234Z,13.70
2023-11-25T11:31:32.347Z,13.00
2023-11-25T11:36:31.980Z,14.70
2023-11-25T11:39:00.545Z,14.60
2023-11-25T11:41:30.811Z,14.30
2023-11-25T11:44:11.231Z,14.40
2023-11-25T11:46:43.157Z,14.40
2023-11-25T11:49:17.520Z,13.40
2023-11-25T11:52:03.157Z,12.20
2023-11-25T11:54:31.609Z,13.00
2023-11-25T11:57:05.051Z,13.40
2023-11-25T12:00:07.536Z,11.00
2023-11-25T12:02:39.147Z,11.90
2023-11-25T12:05:09.156Z,10.60
2023-11-25T12:07:37.561Z,11.10
2023-11-25T12:10:07.159Z,12.80
2023-11-25T12:12:43.107Z,12.90
2023-11-25T12:15:11.856Z,13.40
2023-11-25T12:17:42.147Z,15.00
2023-11-25T12:20:12.128Z,14.60
2023-11-25T12:22:42.046Z,13.80
2023-11-25T12:25:15.246Z,16.70
2023-11-25T12:28:07.792Z,13.00
2023-11-25T12:30:41.256Z,11.80
2023-11-25T12:33:11.863Z,10.20
2023-11-25T12:35:46.403Z,11.80
2023-11-25T12:38:17.909Z,10.70
2023-11-25T12:40:47.802Z,10.70
2023-11-25T12:43:17.410Z,12.10
2023-11-25T12:45:48.236Z,10.20
2023-11-25T12:48:30.850Z,12.20
2023-11-25T12:51:11.811Z,12.70
2023-11-25T12:53:55.066Z,9.80
2023-11-25T12:56:23.858Z,7.60
2023-11-25T12:58:52.145Z,9.20
2023-11-25T13:01:25.102Z,8.40
2023-11-25T13:03:54.163Z,8.80
2023-11-25T13:06:22.753Z,9.70
2023-11-25T13:08:52.214Z,8.10
2023-11-25T13:11:20.690Z,9.20
2023-11-25T13:13:49.214Z,7.70
2023-11-25T13:16:17.525Z,7.10
2023-11-25T13:18:49.662Z,7.40
2023-11-25T13:21:19.927Z,7.70
2023-11-25T13:23:48.351Z,6.70
2023-11-25T13:26:16.992Z,8.70
2023-11-25T13:28:45.373Z,10.50
2023-11-25T13:31:13.793Z,9.50
2023-11-25T13:33:42.275Z,8.40
2023-11-25T13:36:10.704Z,9.20
2023-11-25T13:38:39.875Z,8.20
2023-11-25T13:41:09.286Z,7.60
2023-11-25T13:43:37.818Z,8.60
2023-11-25T13:46:06.378Z,8.90
2023-11-25T13:48:37.965Z,8.60
2023-11-25T13:54:40.678Z,15.70
2023-11-25T13:57:09.077Z,10.30
2023-11-25T13:59:37.858Z,8.30
2023-11-25T14:02:09.184Z,7.30
2023-11-25T14:04:41.350Z,9.80
2023-11-25T14:07:10.749Z,10.90
2023-11-25T14:09:41.026Z,9.70
2023-11-25T14:12:09.574Z,9.00
2023-11-25T14:14:37.983Z,12.70
2023-11-25T14:17:11.562Z,9.00
2023-11-25T14:19:41.464Z,8.90
2023-11-25T14:22:10.790Z,9.60
2023-11-25T14:24:39.468Z,11.10
2023-11-25T14:27:07.985Z,10.20
2023-11-25T14:29:36.556Z,10.20
2023-11-25T14:32:05.995Z,9.40
2023-11-25T14:34:34.668Z,9.20
2023-11-25T14:37:03.178Z,9.10
2023-11-25T14:39:42.254Z,8.20
2023-11-25T14:42:16.196Z,8.40
2023-11-25T14:44:45.959Z,9.80
2023-11-25T14:47:14.831Z,9.90
2023-11-25T14:49:43.533Z,7.40
2023-11-25T14:52:12.135Z,9.50
2023-11-25T14:54:42.262Z,8.70
2023-11-25T14:57:14.634Z,8.40
2023-11-25T14:59:44.237Z,9.70
2023-11-25T15:02:15.704Z,8.40
2023-11-25T15:04:52.343Z,7.30
2023-11-25T15:07:22.270Z,9.30
2023-11-25T15:09:50.983Z,11.20
2023-11-25T15:16:20.129Z,12.20
2023-11-25T15:18:48.586Z,8.70
2023-11-25T15:21:19.556Z,10.60
2023-11-25T15:23:48.349Z,10.80
2023-11-25T15:26:17.028Z,13.10
2023-11-25T15:28:51.552Z,11.50
2023-11-25T15:31:21.279Z,12.70
2023-11-25T15:33:50.600Z,9.90
2023-11-25T15:36:19.807Z,10.30
2023-11-25T15:38:48.579Z,10.80
2023-11-25T15:41:17.028Z,10.50
2023-11-25T15:43:45.762Z,10.20
2023-11-25T15:46:14.362Z,10.70
2023-11-25T15:48:42.787Z,10.50
2023-11-25T15:51:11.644Z,11.10
2023-11-25T15:53:39.951Z,12.80
2023-11-25T15:56:08.871Z,12.30
2023-11-25T15:58:37.386Z,12.50
2023-11-25T16:01:06.109Z,10.70
2023-11-25T16:03:34.438Z,13.90
2023-11-25T16:06:06.178Z,14.40
2023-11-25T16:08:34.461Z,13.60
2023-11-25T16:11:02.766Z,12.50
2023-11-25T16:13:33.138Z,11.40
2023-11-25T16:16:01.924Z,11.50
2023-11-25T16:18:31.971Z,10.90
2023-11-25T16:21:01.037Z,11.00
2023-11-25T16:23:29.713Z,11.50
2023-11-25T16:25:59.924Z,12.10
2023-11-25T16:28:28.447Z,12.40
2023-11-25T16:30:56.736Z,11.70
2023-11-25T16:33:25.933Z,8.00
2023-11-25T16:35:54.375Z,10.00
2023-11-25T16:38:26.665Z,10.30
2023-11-25T16:40:56.467Z,9.00
2023-11-25T16:43:26.625Z,9.70
2023-11-25T16:45:58.025Z,10.30
2023-11-25T16:48:34.968Z,12.00
2023-11-25T16:51:11.859Z,11.90
2023-11-25T16:53:42.322Z,10.70
2023-11-25T16:56:10.855Z,10.60
2023-11-25T16:58:39.341Z,11.20
2023-11-25T17:01:07.765Z,12.10
2023-11-25T17:03:36.496Z,13.70
2023-11-25T17:06:07.119Z,13.00
2023-11-25T17:08:35.520Z,12.50
2023-11-25T17:11:05.219Z,15.50
2023-11-25T17:13:34.046Z,14.00
2023-11-25T17:16:02.412Z,12.90
2023-11-25T17:18:30.843Z,13.70
2023-11-25T17:20:59.190Z,15.70
2023-11-25T17:23:27.557Z,13.80
2023-11-25T17:25:59.664Z,16.60
2023-11-25T17:28:30.830Z,15.50
2023-11-25T17:31:00.226Z,14.30
2023-11-25T17:33:28.670Z,14.40
2023-11-25T17:35:57.147Z,12.40
2023-11-25T17:38:25.409Z,13.80
2023-11-25T17:40:54.320Z,14.50
2023-11-25T17:43:22.622Z,17.10
2023-11-25T17:45:51.168Z,16.80
2023-11-25T17:48:19.694Z,14.70
2023-11-25T17:50:48.052Z,17.90
2023-11-25T17:53:16.372Z,19.30
2023-11-25T17:55:44.914Z,22.30
2023-11-25T17:58:13.318Z,22.10
2023-11-25T18:00:44.727Z,25.30
2023-11-25T18:03:13.490Z,23.70
2023-11-25T18:05:41.940Z,23.80
2023-11-25T18:08:10.426Z,24.40
2023-11-25T18:10:38.905Z,25.50
2023-11-25T18:13:07.364Z,24.00
2023-11-25T18:15:35.651Z,20.90
2023-11-25T18:18:04.789Z,20.90
2023-11-25T18:20:33.092Z,20.50
2023-11-25T18:23:01.497Z,21.40
2023-11-25T18:25:30.362Z,21.60
2023-11-25T18:27:58.903Z,18.70
2023-11-25T18:30:27.475Z,18.50
2023-11-25T18:32:55.956Z,18.40
2023-11-25T18:35:27.646Z,17.40
2023-11-25T18:37:56.187Z,17.10
2023-11-25T18:40:24.805Z,16.80
2023-11-25T18:42:55.498Z,17.50
2023-11-25T18:45:26.029Z,20.10
2023-11-25T18:47:54.830Z,19.40
2023-11-25T18:50:28.953Z,19.70
2023-11-25T18:52:58.173Z,21.30
2023-11-25T18:55:26.823Z,18.90
2023-11-25T18:57:58.194Z,17.90
2023-11-25T19:00:26.610Z,16.90
2023-11-25T19:02:57.847Z,18.20
2023-11-25T19:05:26.422Z,17.80
2023-11-25T19:07:55.173Z,17.40
2023-11-25T19:10:26.351Z,17.00
2023-11-25T19:12:54.861Z,16.50
2023-11-25T19:15:23.499Z,15.60
2023-11-25T19:17:53.276Z,17.10
2023-11-25T19:20:24.924Z,17.00
2023-11-25T19:22:54.039Z,18.60
2023-11-25T19:25:24.271Z,16.70
2023-11-25T19:27:52.831Z,16.40
2023-11-25T19:30:21.501Z,14.90
2023-11-25T19:32:50.231Z,17.00
2023-11-25T19:35:18.688Z,15.00
2023-11-25T19:37:49.597Z,15.70
2023-11-25T19:40:20.199Z,14.90
2023-11-25T19:42:48.910Z,14.10
2023-11-25T19:45:20.135Z,16.00
2023-11-25T19:47:51.141Z,16.20
2023-11-25T19:50:19.693Z,14.30
2023-11-25T19:52:50.268Z,13.20
2023-11-25T19:55:18.802Z,12.80
2023-11-25T19:57:47.166Z,14.00
2023-11-25T20:00:17.311Z,14.00
2023-11-25T20:02:46.583Z,13.60
2023-11-25T20:05:16.843Z,13.00
2023-11-25T20:07:47.204Z,14.80
2023-11-25T20:10:16.335Z,13.20
2023-11-25T20:12:45.058Z,15.40
2023-11-25T20:15:16.738Z,13.70
2023-11-25T20:17:48.325Z,15.10
2023-11-25T20:20:19.169Z,15.10
2023-11-25T20:22:48.181Z,14.00
2023-11-25T20:25:16.837Z,12.80
2023-11-25T20:27:46.456Z,12.40
2023-11-25T20:30:15.336Z,15.00
2023-11-25T20:32:44.951Z,12.40
2023-11-25T20:35:13.561Z,14.00
2023-11-25T20:37:42.311Z,10.90
2023-11-25T20:40:11.494Z,12.10
2023-11-25T20:42:42.616Z,12.30
2023-11-25T20:45:12.696Z,13.70
2023-11-25T20:47:43.985Z,12.90
2023-11-25T20:50:12.688Z,12.60
2023-11-25T20:52:41.147Z,12.10
2023-11-25T20:55:11.414Z,12.00
2023-11-25T20:57:41.381Z,11.00
2023-11-25T21:00:11.673Z,13.00
2023-11-25T21:02:40.574Z,11.30
2023-11-25T21:26:44.688Z,13.50
2023-11-25T21:29:13.029Z,12.30
2023-11-25T21:31:41.382Z,12.00
2023-11-25T21:34:10.005Z,12.20
2023-11-25T21:36:41.986Z,11.80
2023-11-25T21:39:12.114Z,12.10
2023-11-25T21:41:40.752Z,12.10
2023-11-25T21:44:09.412Z,11.00
2023-11-25T21:46:37.966Z,11.40
2023-11-25T21:49:06.510Z,12.30
2023-11-25T21:51:34.846Z,12.70
2023-11-25T21:54:03.369Z,11.90
2023-11-25T21:56:31.996Z,11.60
2023-11-25T21:59:00.506Z,13.30
2023-11-25T22:01:29.355Z,11.90
2023-11-25T22:03:59.350Z,14.10
2023-11-25T22:06:29.046Z,11.20
2023-11-25T22:08:59.198Z,11.50
2023-11-25T22:11:28.160Z,11.30
2023-11-25T22:14:00.298Z,10.80
2023-11-25T22:16:28.801Z,12.30
2023-11-25T22:18:57.177Z,11.10
2023-11-25T22:21:25.590Z,12.30
2023-11-25T22:23:55.802Z,10.40
2023-11-25T22:26:34.442Z,9.80
2023-11-25T22:29:05.291Z,8.60
2023-11-25T22:31:34.096Z,8.70
2023-11-25T22:34:02.576Z,10.30
2023-11-25T22:36:32.573Z,8.30
2023-11-25T22:39:01.050Z,8.80
2023-11-25T22:41:29.440Z,8.30
2023-11-25T22:43:58.334Z,9.40
2023-11-25T22:46:27.541Z,9.50
2023-11-25T22:48:56.137Z,8.30
2023-11-25T22:51:25.330Z,8.50
2023-11-25T22:53:54.694Z,8.20
2023-11-25T22:56:23.053Z,10.00
2023-11-25T22:58:51.445Z,9.70
2023-11-25T23:01:26.264Z,9.30
2023-11-25T23:03:56.583Z,7.70
2023-11-25T23:06:25.826Z,8.10
2023-11-25T23:08:54.323Z,8.70
2023-11-25T23:11:23.616Z,9.60
2023-11-25T23:13:52.010Z,8.50
2023-11-25T23:16:20.338Z,8.80
2023-11-25T23:18:48.973Z,8.80
2023-11-25T23:21:18.487Z,7.30
2023-11-25T23:23:48.897Z,7.40
2023-11-25T23:26:17.788Z,7.60
2023-11-25T23:28:46.443Z,7.40
2023-11-25T23:31:14.976Z,6.40
2023-11-25T23:33:43.474Z,6.70
2023-11-25T23:36:11.752Z,7.80
2023-11-25T23:38:41.633Z,7.10
2023-11-25T23:41:09.989Z,7.90
2023-11-25T23:43:38.399Z,8.00
2023-11-25T23:46:07.205Z,6.60
2023-11-25T23:48:36.883Z,5.80
2023-11-25T23:51:06.751Z,6.40
2023-11-25T23:53:35.099Z,6.70
2023-11-25T23:56:03.681Z,6.80
2023-11-25T23:58:32.325Z,7.20
